createdAt,value
2019-01-20T00:00:58.167Z,69.10
2019-01-20T00:03:26.021Z,69.30
2019-01-20T00:05:53.865Z,69.50
2019-01-20T00:08:21.748Z,69.00
2019-01-20T00:10:49.585Z,69.00
2019-01-20T00:13:17.431Z,68.90
2019-01-20T00:15:46.800Z,69.60
2019-01-20T00:18:14.615Z,68.90
2019-01-20T00:20:42.432Z,68.90
2019-01-20T00:23:10.275Z,69.60
2019-01-20T00:25:38.142Z,68.90
2019-01-20T00:28:11.019Z,68.90
2019-01-20T00:30:38.850Z,69.10
2019-01-20T00:33:08.220Z,69.10
2019-01-20T00:35:36.026Z,68.90
2019-01-20T00:38:23.074Z,69.40
2019-01-20T00:40:50.874Z,69.00
2019-01-20T00:43:18.708Z,69.60
2019-01-20T00:45:46.537Z,68.90
2019-01-20T00:48:14.369Z,69.00
2019-01-20T00:50:42.151Z,68.80
2019-01-20T00:53:10.016Z,68.80
2019-01-20T00:55:37.847Z,69.20
2019-01-20T00:58:05.559Z,69.30
2019-01-20T01:00:33.339Z,69.10
2019-01-20T01:03:01.138Z,69.20
2019-01-20T01:05:29.143Z,69.80
2019-01-20T01:07:57.335Z,68.70
2019-01-20T01:10:25.106Z,69.10
2019-01-20T01:12:53.658Z,68.70
2019-01-20T01:15:21.530Z,68.50
2019-01-20T01:17:49.549Z,68.60
2019-01-20T01:20:18.195Z,69.90
2019-01-20T01:22:46.040Z,68.70
2019-01-20T01:25:15.170Z,69.80
2019-01-20T01:27:43.098Z,69.90
2019-01-20T01:30:17.704Z,70.70
2019-01-20T01:32:45.482Z,71.60
2019-01-20T01:35:13.425Z,72.10
2019-01-20T01:37:41.238Z,72.40
2019-01-20T01:40:10.384Z,72.00
2019-01-20T01:42:38.220Z,72.30
2019-01-20T01:45:09.551Z,72.40
2019-01-20T01:47:37.525Z,72.20
2019-01-20T01:50:06.322Z,72.00
2019-01-20T01:52:34.120Z,73.50
2019-01-20T01:55:01.921Z,72.20
2019-01-20T01:57:39.904Z,72.70
2019-01-20T02:00:15.238Z,72.30
2019-01-20T02:02:43.043Z,72.50
2019-01-20T02:05:13.673Z,72.10
2019-01-20T02:07:41.438Z,72.00
2019-01-20T02:10:13.118Z,72.50
2019-01-20T02:12:41.214Z,71.60
2019-01-20T02:15:11.081Z,71.90
2019-01-20T02:17:38.890Z,71.60
2019-01-20T02:20:10.017Z,71.60
2019-01-20T02:22:37.966Z,71.60
2019-01-20T02:25:06.148Z,71.50
2019-01-20T02:27:44.177Z,72.60
2019-01-20T02:30:22.354Z,71.20
2019-01-20T02:32:50.186Z,72.20
2019-01-20T02:35:17.912Z,72.20
2019-01-20T02:37:58.745Z,72.30
2019-01-20T02:40:26.573Z,74.20
2019-01-20T02:42:54.374Z,72.40
2019-01-20T02:45:22.150Z,72.80
2019-01-20T02:47:49.879Z,72.40
2019-01-20T02:50:17.731Z,71.50
2019-01-20T02:52:45.526Z,71.40
2019-01-20T02:55:13.349Z,71.60
2019-01-20T02:57:41.089Z,71.80
2019-01-20T03:00:19.314Z,71.40
2019-01-20T03:02:47.225Z,72.20
2019-01-20T03:05:15.194Z,72.10
2019-01-20T03:07:43.073Z,72.20
2019-01-20T03:10:11.731Z,71.00
2019-01-20T03:12:39.561Z,70.80
2019-01-20T03:15:08.339Z,69.70
2019-01-20T03:17:36.115Z,71.10
2019-01-20T03:20:08.075Z,70.70
2019-01-20T03:22:35.880Z,71.40
2019-01-20T03:25:05.141Z,70.40
2019-01-20T03:27:33.450Z,69.60
2019-01-20T03:30:02.506Z,70.80
2019-01-20T03:32:30.323Z,71.10
2019-01-20T03:34:58.072Z,71.20
2019-01-20T03:37:25.865Z,70.70
2019-01-20T03:39:53.743Z,71.30
2019-01-20T03:42:21.546Z,71.00
2019-01-20T03:44:49.325Z,70.70
2019-01-20T03:47:17.130Z,71.20
2019-01-20T03:49:44.941Z,70.60
2019-01-20T03:52:12.753Z,71.50
2019-01-20T03:54:40.549Z,71.20
2019-01-20T03:57:08.326Z,70.60
2019-01-20T03:59:36.121Z,70.70
2019-01-20T04:02:04.436Z,70.90
2019-01-20T04:04:32.225Z,70.40
2019-01-20T04:07:00.069Z,72.20
2019-01-20T04:09:27.861Z,72.30
2019-01-20T04:11:55.630Z,72.00
2019-01-20T04:14:23.455Z,72.60
2019-01-20T04:16:51.333Z,73.20
2019-01-20T04:19:19.113Z,73.10
2019-01-20T04:21:46.907Z,72.80
2019-01-20T04:24:14.672Z,71.40
2019-01-20T04:26:42.500Z,71.30
2019-01-20T04:29:10.316Z,71.30
2019-01-20T04:31:38.120Z,70.60
2019-01-20T04:34:05.870Z,71.20
2019-01-20T04:36:33.769Z,70.80
2019-01-20T04:39:01.605Z,70.10
2019-01-20T04:41:29.409Z,70.10
2019-01-20T04:43:57.164Z,70.40
2019-01-20T04:46:24.998Z,69.70
2019-01-20T04:48:52.744Z,70.20
2019-01-20T04:51:20.672Z,70.50
2019-01-20T04:53:48.739Z,71.00
2019-01-20T04:56:16.675Z,71.40
2019-01-20T04:58:44.446Z,71.50
2019-01-20T05:01:12.224Z,71.80
2019-01-20T05:03:40.005Z,72.20
2019-01-20T05:06:07.789Z,72.40
2019-01-20T05:08:35.548Z,72.80
2019-01-20T05:11:03.372Z,71.60
2019-01-20T05:13:31.165Z,71.20
2019-01-20T05:15:58.967Z,70.90
2019-01-20T05:18:26.766Z,72.10
2019-01-20T05:20:54.525Z,71.40
2019-01-20T05:23:22.366Z,72.10
2019-01-20T05:25:50.192Z,71.60
2019-01-20T05:28:18.206Z,71.40
2019-01-20T05:30:46.003Z,71.30
2019-01-20T05:33:13.858Z,71.10
2019-01-20T05:35:41.668Z,73.60
2019-01-20T05:38:09.607Z,72.70
2019-01-20T05:40:37.440Z,73.80
2019-01-20T05:43:05.276Z,74.30
2019-01-20T05:45:33.024Z,74.70
2019-01-20T05:48:00.970Z,74.30
2019-01-20T05:50:28.792Z,74.70
2019-01-20T05:52:56.634Z,75.00
2019-01-20T05:55:24.430Z,74.30
2019-01-20T05:57:52.267Z,73.80
2019-01-20T06:00:23.643Z,74.30
2019-01-20T06:02:51.529Z,73.00
2019-01-20T06:05:19.332Z,73.20
2019-01-20T06:07:47.398Z,73.40
2019-01-20T06:10:15.241Z,72.70
2019-01-20T06:12:43.024Z,73.10
2019-01-20T06:15:14.447Z,73.20
2019-01-20T06:17:42.457Z,72.70
2019-01-20T06:20:10.381Z,72.70
2019-01-20T06:22:38.162Z,73.50
2019-01-20T06:25:06.603Z,72.70
2019-01-20T06:27:34.389Z,72.70
2019-01-20T06:30:02.234Z,71.90
2019-01-20T06:32:30.057Z,71.30
2019-01-20T06:34:57.946Z,71.00
2019-01-20T06:37:25.717Z,73.00
2019-01-20T06:39:53.965Z,72.70
2019-01-20T06:42:21.790Z,72.70
2019-01-20T06:44:49.628Z,72.60
2019-01-20T06:47:17.449Z,73.00
2019-01-20T06:49:45.261Z,72.70
2019-01-20T06:52:13.554Z,72.70
2019-01-20T06:54:41.379Z,72.70
2019-01-20T06:57:14.352Z,72.70
2019-01-20T06:59:42.174Z,73.50
2019-01-20T07:02:09.936Z,73.20
2019-01-20T07:04:37.726Z,74.80
2019-01-20T07:07:05.492Z,73.00
2019-01-20T07:09:33.299Z,73.20
2019-01-20T07:12:01.081Z,73.80
2019-01-20T07:14:28.932Z,74.10
2019-01-20T07:16:56.707Z,74.20
2019-01-20T07:19:24.474Z,73.70
2019-01-20T07:21:52.240Z,73.10
2019-01-20T07:24:20.019Z,73.50
2019-01-20T07:26:47.849Z,73.30
2019-01-20T07:29:15.649Z,73.60
2019-01-20T07:31:43.408Z,73.10
2019-01-20T07:34:11.217Z,73.00
2019-01-20T07:36:38.967Z,73.30
2019-01-20T07:39:07.386Z,73.00
2019-01-20T07:41:35.123Z,73.00
2019-01-20T07:44:02.973Z,73.10
2019-01-20T07:46:30.953Z,73.20
2019-01-20T07:48:58.746Z,73.30
2019-01-20T07:51:26.588Z,73.50
2019-01-20T07:53:54.401Z,72.30
2019-01-20T07:56:22.170Z,72.50
2019-01-20T07:58:49.959Z,71.10
2019-01-20T08:01:17.788Z,71.00
2019-01-20T08:03:45.637Z,70.90
2019-01-20T08:06:13.458Z,70.70
2019-01-20T08:08:41.243Z,70.30
2019-01-20T08:11:09.006Z,70.30
2019-01-20T08:13:36.775Z,69.90
2019-01-20T08:16:04.608Z,69.60
2019-01-20T08:18:32.403Z,69.40
2019-01-20T08:21:00.172Z,69.20
2019-01-20T08:23:27.907Z,69.70
2019-01-20T08:25:55.732Z,70.10
2019-01-20T08:28:23.533Z,69.00
2019-01-20T08:30:51.332Z,69.60
2019-01-20T08:33:19.561Z,69.20
2019-01-20T08:35:47.391Z,69.20
2019-01-20T08:38:15.473Z,69.40
2019-01-20T08:40:43.283Z,68.50
2019-01-20T08:43:11.077Z,67.80
2019-01-20T08:46:31.251Z,67.50
2019-01-20T08:48:59.065Z,66.50
2019-01-20T08:51:27.069Z,65.80
2019-01-20T08:53:54.871Z,66.20
2019-01-20T08:56:23.718Z,65.80
2019-01-20T08:58:51.441Z,65.10
2019-01-20T09:01:19.247Z,64.80
2019-01-20T09:04:06.472Z,65.10
2019-01-20T09:06:34.256Z,65.90
2019-01-20T09:09:07.884Z,64.50
2019-01-20T09:11:35.830Z,63.60
2019-01-20T09:14:03.709Z,63.90
2019-01-20T09:16:31.485Z,63.40
2019-01-20T09:18:59.311Z,62.80
2019-01-20T09:21:27.054Z,62.60
2019-01-20T09:23:54.833Z,62.40
2019-01-20T09:26:22.650Z,62.40
2019-01-20T09:28:53.744Z,62.30
2019-01-20T09:31:21.571Z,62.50
2019-01-20T09:33:49.391Z,61.80
2019-01-20T09:36:17.191Z,62.00
2019-01-20T09:38:45.060Z,61.40
2019-01-20T09:41:12.910Z,61.70
2019-01-20T09:43:47.141Z,61.10
2019-01-20T09:46:10.525Z,61.60
2019-01-20T09:48:48.503Z,61.40
2019-01-20T09:51:16.301Z,61.10
2019-01-20T09:53:44.142Z,60.80
2019-01-20T09:56:11.948Z,60.70
2019-01-20T09:58:39.767Z,60.80
2019-01-20T10:01:07.680Z,60.90
2019-01-20T10:03:35.447Z,60.80
2019-01-20T10:06:03.477Z,59.50
2019-01-20T10:08:31.476Z,59.90
2019-01-20T10:10:59.284Z,60.10
2019-01-20T10:13:27.080Z,60.40
2019-01-20T10:15:54.900Z,59.90
2019-01-20T10:18:22.796Z,59.80
2019-01-20T10:20:50.586Z,59.30
2019-01-20T10:23:21.105Z,59.20
2019-01-20T10:25:48.916Z,59.50
2019-01-20T10:28:25.003Z,58.50
2019-01-20T10:30:52.816Z,59.20
2019-01-20T10:33:20.605Z,59.50
2019-01-20T10:36:07.269Z,58.40
2019-01-20T10:38:45.213Z,59.40
2019-01-20T10:41:13.030Z,58.90
2019-01-20T10:43:40.841Z,58.60
2019-01-20T10:46:08.660Z,58.80
2019-01-20T10:48:46.669Z,58.20
2019-01-20T10:51:14.469Z,58.50
2019-01-20T10:53:42.306Z,57.70
2019-01-20T10:56:10.170Z,57.70
2019-01-20T10:58:43.013Z,57.30
2019-01-20T11:01:10.809Z,57.00
2019-01-20T11:03:38.594Z,56.70
2019-01-20T11:06:06.410Z,57.00
2019-01-20T11:08:34.386Z,56.20
2019-01-20T11:11:02.326Z,56.10
2019-01-20T11:13:30.267Z,56.00
2019-01-20T11:15:58.075Z,56.00
2019-01-20T11:18:31.058Z,55.80
2019-01-20T11:20:58.806Z,55.70
2019-01-20T11:23:26.747Z,55.70
2019-01-20T11:25:54.538Z,54.90
2019-01-20T11:28:32.523Z,54.80
2019-01-20T11:31:00.320Z,54.20
2019-01-20T11:33:28.138Z,54.50
2019-01-20T11:35:55.971Z,54.70
2019-01-20T11:38:23.793Z,52.90
2019-01-20T11:40:51.639Z,53.10
2019-01-20T11:43:19.447Z,52.10
2019-01-20T11:45:47.300Z,49.50
2019-01-20T11:48:24.765Z,48.10
2019-01-20T11:50:53.631Z,45.10
2019-01-20T11:53:21.543Z,43.10
2019-01-20T11:55:49.434Z,41.50
2019-01-20T11:58:17.559Z,38.50
2019-01-20T12:00:45.797Z,38.10
2019-01-20T12:03:14.085Z,37.00
2019-01-20T12:05:45.224Z,36.10
2019-01-20T12:08:13.774Z,36.10
2019-01-20T12:10:42.363Z,35.40
2019-01-20T12:13:12.446Z,34.80
2019-01-20T12:15:40.739Z,34.10
2019-01-20T12:18:09.269Z,33.90
2019-01-20T12:20:37.651Z,34.60
2019-01-20T12:23:05.982Z,34.30
2019-01-20T12:25:34.663Z,34.50
2019-01-20T12:28:02.951Z,34.30
2019-01-20T12:30:34.207Z,34.80
2019-01-20T12:33:02.023Z,33.70
2019-01-20T12:35:29.804Z,33.90
2019-01-20T12:37:57.612Z,33.70
2019-01-20T12:40:29.692Z,33.10
2019-01-20T12:42:57.496Z,32.50
2019-01-20T12:45:25.402Z,32.20
2019-01-20T12:47:53.204Z,33.40
2019-01-20T12:50:21.069Z,35.70
2019-01-20T12:52:48.900Z,35.50
2019-01-20T12:55:17.016Z,36.00
2019-01-20T12:57:44.863Z,35.80
2019-01-20T13:00:15.914Z,35.80
2019-01-20T13:02:43.783Z,35.70
2019-01-20T13:05:12.068Z,35.80
2019-01-20T13:07:39.972Z,36.10
2019-01-20T13:10:09.933Z,36.90
2019-01-20T13:12:37.729Z,37.00
2019-01-20T13:15:08.978Z,37.80
2019-01-20T13:17:47.963Z,37.80
2019-01-20T13:20:18.879Z,37.70
2019-01-20T13:22:46.787Z,37.60
2019-01-20T13:25:18.335Z,36.50
2019-01-20T13:27:46.286Z,36.00
2019-01-20T13:30:19.633Z,36.10
2019-01-20T13:32:47.450Z,36.40
2019-01-20T13:35:16.984Z,35.30
2019-01-20T13:38:15.457Z,34.80
2019-01-20T13:40:56.841Z,34.80
2019-01-20T13:43:24.707Z,34.60
2019-01-20T13:45:52.610Z,33.80
2019-01-20T13:48:25.911Z,33.20
2019-01-20T13:50:53.738Z,32.40
2019-01-20T13:53:21.525Z,32.60
2019-01-20T13:55:49.343Z,31.80
2019-01-20T13:58:17.201Z,31.80
2019-01-20T14:00:45.053Z,31.80
2019-01-20T14:03:12.766Z,31.60
2019-01-20T14:05:40.576Z,31.60
2019-01-20T14:08:08.598Z,32.10
2019-01-20T14:10:36.432Z,31.80
2019-01-20T14:13:04.555Z,31.40
2019-01-20T14:15:32.342Z,31.50
2019-01-20T14:18:00.323Z,31.30
2019-01-20T14:20:28.100Z,31.60
2019-01-20T14:22:55.893Z,31.70
2019-01-20T14:25:24.630Z,31.60
2019-01-20T14:27:53.239Z,31.80
2019-01-20T14:30:24.784Z,32.60
2019-01-20T14:32:53.127Z,32.90
2019-01-20T14:35:21.631Z,33.90
2019-01-20T14:37:50.113Z,34.40
2019-01-20T14:40:18.664Z,34.60
2019-01-20T14:42:48.708Z,34.80
2019-01-20T14:45:17.437Z,34.60
2019-01-20T14:47:45.521Z,35.10
2019-01-20T14:50:20.601Z,35.30
2019-01-20T14:52:48.414Z,35.70
2019-01-20T14:55:16.699Z,35.40
2019-01-20T14:57:44.556Z,35.80
2019-01-20T15:00:31.095Z,35.70
2019-01-20T15:02:59.022Z,35.40
2019-01-20T15:05:26.771Z,35.40
2019-01-20T15:07:56.686Z,36.70
2019-01-20T15:10:24.488Z,37.30
2019-01-20T15:12:52.273Z,37.50
2019-01-20T15:15:24.991Z,38.10
2019-01-20T15:18:08.799Z,39.80
2019-01-20T15:20:36.858Z,40.40
2019-01-20T15:23:05.281Z,41.50
2019-01-20T15:25:33.063Z,42.50
2019-01-20T15:28:16.053Z,42.90
2019-01-20T15:30:43.858Z,43.80
2019-01-20T15:33:11.670Z,43.60
2019-01-20T15:35:39.539Z,44.70
2019-01-20T15:38:10.572Z,45.80
2019-01-20T15:40:39.597Z,46.00
2019-01-20T15:43:26.887Z,46.70
2019-01-20T15:45:55.338Z,48.70
2019-01-20T15:48:23.316Z,48.50
2019-01-20T15:50:51.164Z,49.00
2019-01-20T15:53:18.967Z,50.10
2019-01-20T15:55:46.810Z,49.50
2019-01-20T15:58:14.713Z,50.70
2019-01-20T16:00:42.583Z,51.30
2019-01-20T16:03:10.399Z,51.70
2019-01-20T16:05:57.713Z,52.60
2019-01-20T16:08:27.676Z,53.40
2019-01-20T16:10:55.426Z,52.20
2019-01-20T16:13:23.302Z,52.10
2019-01-20T16:15:51.114Z,52.10
2019-01-20T16:18:18.968Z,52.70
2019-01-20T16:20:46.713Z,54.20
2019-01-20T16:23:14.491Z,54.90
2019-01-20T16:25:42.347Z,53.90
2019-01-20T16:28:20.052Z,55.50
2019-01-20T16:30:47.909Z,56.70
2019-01-20T16:33:15.794Z,55.70
2019-01-20T16:35:44.771Z,56.70
2019-01-20T16:38:13.141Z,56.80
2019-01-20T16:40:41.075Z,56.80
2019-01-20T16:43:09.570Z,56.80
2019-01-20T16:45:42.859Z,58.10
2019-01-20T16:48:11.688Z,57.60
2019-01-20T16:50:39.904Z,58.80
2019-01-20T16:53:09.521Z,58.50
2019-01-20T16:55:37.390Z,59.40
2019-01-20T16:58:05.270Z,59.20
2019-01-20T17:00:36.132Z,59.30
2019-01-20T17:03:03.948Z,60.20
2019-01-20T17:05:31.732Z,60.30
2019-01-20T17:07:59.550Z,60.90
2019-01-20T17:10:31.461Z,61.00
2019-01-20T17:12:59.742Z,60.80
2019-01-20T17:15:31.321Z,60.80
2019-01-20T17:18:06.650Z,60.70
2019-01-20T17:20:34.475Z,60.70
2019-01-20T17:23:02.335Z,60.70
2019-01-20T17:25:30.172Z,62.70
2019-01-20T17:28:01.452Z,61.90
2019-01-20T17:30:30.990Z,62.10
2019-01-20T17:32:58.842Z,62.70
2019-01-20T17:35:26.674Z,62.50
2019-01-20T17:38:05.346Z,63.20
2019-01-20T17:40:33.228Z,62.10
2019-01-20T17:43:00.968Z,63.40
2019-01-20T17:45:32.935Z,62.60
2019-01-20T17:48:00.687Z,63.60
2019-01-20T17:50:34.766Z,64.00
2019-01-20T17:53:03.181Z,63.90
2019-01-20T17:55:31.187Z,64.00
2019-01-20T17:57:59.050Z,64.10
2019-01-20T18:00:41.963Z,65.30
2019-01-20T18:03:10.695Z,65.30
2019-01-20T18:05:38.732Z,66.00
2019-01-20T18:08:06.584Z,65.50
2019-01-20T18:10:34.502Z,65.60
2019-01-20T18:13:10.039Z,65.80
2019-01-20T18:15:44.503Z,65.20
2019-01-20T18:18:32.065Z,65.30
2019-01-20T18:21:00.097Z,66.40
2019-01-20T18:23:27.848Z,66.00
2019-01-20T18:25:56.237Z,65.30
2019-01-20T18:28:27.008Z,66.20
2019-01-20T18:31:00.201Z,65.90
2019-01-20T18:33:30.869Z,68.00
2019-01-20T18:35:58.744Z,65.80
2019-01-20T18:39:06.002Z,66.00
2019-01-20T18:41:34.041Z,67.10
2019-01-20T18:44:01.936Z,67.40
2019-01-20T18:46:37.131Z,67.20
2019-01-20T18:49:05.209Z,66.70
2019-01-20T18:51:33.286Z,67.60
2019-01-20T18:54:01.153Z,67.60
2019-01-20T18:56:29.455Z,67.30
2019-01-20T18:58:57.940Z,67.70
2019-01-20T19:01:27.899Z,68.00
2019-01-20T19:03:56.499Z,67.90
2019-01-20T19:06:24.986Z,68.00
2019-01-20T19:08:53.026Z,67.30
2019-01-20T19:11:20.845Z,67.10
2019-01-20T19:14:08.148Z,68.10
2019-01-20T19:16:36.087Z,69.50
2019-01-20T19:19:19.048Z,68.30
2019-01-20T19:21:46.891Z,67.60
2019-01-20T19:24:14.750Z,69.80
2019-01-20T19:26:42.626Z,71.30
2019-01-20T19:29:10.551Z,71.00
2019-01-20T19:31:38.455Z,70.50
2019-01-20T19:34:06.310Z,70.40
2019-01-20T19:36:34.166Z,71.10
2019-01-20T19:39:08.625Z,70.10
2019-01-20T19:41:36.532Z,70.60
2019-01-20T19:44:04.506Z,69.70
2019-01-20T19:46:32.405Z,70.20
2019-01-20T19:49:00.378Z,71.50
2019-01-20T19:51:28.270Z,69.90
2019-01-20T19:53:56.150Z,70.90
2019-01-20T19:56:24.033Z,71.10
2019-01-20T19:59:27.465Z,71.20
2019-01-20T20:01:55.354Z,71.50
2019-01-20T20:04:23.561Z,72.40
2019-01-20T20:06:51.452Z,73.20
2019-01-20T20:09:19.215Z,73.00
2019-01-20T20:11:47.098Z,71.90
2019-01-20T20:14:14.943Z,70.80
2019-01-20T20:16:42.862Z,70.30
2019-01-20T20:19:10.716Z,70.10
2019-01-20T20:21:38.565Z,71.20
2019-01-20T20:24:06.481Z,70.20
2019-01-20T20:26:34.513Z,70.00
2019-01-20T20:29:07.764Z,69.80
2019-01-20T20:31:35.658Z,70.70
2019-01-20T20:34:03.957Z,70.00
2019-01-20T20:36:31.824Z,70.00
2019-01-20T20:38:59.938Z,70.30
2019-01-20T20:41:27.847Z,69.20
2019-01-20T20:43:55.745Z,71.20
2019-01-20T20:46:30.405Z,70.40
2019-01-20T20:48:53.352Z,70.10
2019-01-20T20:51:21.208Z,69.00
2019-01-20T20:53:55.025Z,69.70
2019-01-20T20:56:22.911Z,69.80
2019-01-20T20:58:51.584Z,71.00
2019-01-20T21:01:19.776Z,71.10
2019-01-20T21:03:48.769Z,70.40
2019-01-20T21:06:16.575Z,69.80
2019-01-20T21:08:50.418Z,71.00
2019-01-20T21:11:18.282Z,70.70
2019-01-20T21:13:46.288Z,70.60
2019-01-20T21:16:14.106Z,70.70
2019-01-20T21:19:02.209Z,71.00
2019-01-20T21:21:30.025Z,72.10
2019-01-20T21:23:59.587Z,72.00
2019-01-20T21:26:27.469Z,71.10
2019-01-20T21:29:36.008Z,72.00
2019-01-20T21:32:04.019Z,71.60
2019-01-20T21:34:31.856Z,71.10
2019-01-20T21:36:59.857Z,71.10
2019-01-20T21:39:27.703Z,70.40
2019-01-20T21:41:55.570Z,70.70
2019-01-20T21:44:23.380Z,71.60
2019-01-20T21:46:51.217Z,70.60
2019-01-20T21:49:19.340Z,72.20
2019-01-20T21:51:47.172Z,71.90
2019-01-20T21:54:18.555Z,71.60
2019-01-20T21:56:46.627Z,71.60
2019-01-20T21:59:14.448Z,71.60
2019-01-20T22:01:48.951Z,72.00
2019-01-20T22:04:20.801Z,71.60
2019-01-20T22:06:49.052Z,71.90
2019-01-20T22:09:16.865Z,71.60
2019-01-20T22:11:44.679Z,71.70
2019-01-20T22:14:12.482Z,71.40
2019-01-20T22:16:40.323Z,70.80
2019-01-20T22:19:27.862Z,71.90
2019-01-20T22:21:55.679Z,70.30
2019-01-20T22:24:23.461Z,70.80
2019-01-20T22:26:51.275Z,70.70
2019-01-20T22:29:19.031Z,70.80
2019-01-20T22:31:46.883Z,71.50
2019-01-20T22:34:14.695Z,70.80
2019-01-20T22:36:42.570Z,70.70
2019-01-20T22:39:10.366Z,70.30
2019-01-20T22:41:38.255Z,70.00
2019-01-20T22:44:06.022Z,70.10
2019-01-20T22:46:33.869Z,70.20
2019-01-20T22:49:01.644Z,70.10
2019-01-20T22:51:29.473Z,70.40
2019-01-20T22:53:57.251Z,69.80
2019-01-20T22:56:25.073Z,70.80
2019-01-20T22:58:57.902Z,70.60
2019-01-20T23:01:25.880Z,70.30
2019-01-20T23:03:53.728Z,71.00
2019-01-20T23:06:21.520Z,71.50
2019-01-20T23:08:49.521Z,71.40
2019-01-20T23:11:17.349Z,72.20
2019-01-20T23:13:45.136Z,72.40
2019-01-20T23:16:12.941Z,72.40
2019-01-20T23:18:40.912Z,71.70
2019-01-20T23:21:11.171Z,72.00
2019-01-20T23:23:38.942Z,72.80
2019-01-20T23:26:06.742Z,71.90
2019-01-20T23:28:39.705Z,72.40
2019-01-20T23:31:07.566Z,72.40
2019-01-20T23:33:35.398Z,71.90
2019-01-20T23:36:03.573Z,71.30
2019-01-20T23:38:36.526Z,71.60
2019-01-20T23:41:04.345Z,71.90
2019-01-20T23:43:32.123Z,69.60
2019-01-20T23:45:59.883Z,70.00
2019-01-20T23:48:32.840Z,70.10
2019-01-20T23:51:20.056Z,70.20
2019-01-20T23:53:47.832Z,71.30
2019-01-20T23:56:15.647Z,70.40
2019-01-20T23:58:48.492Z,70.30
